sensor_id;sensor_type;location;lat;lon;timestamp;temperature;humidity
75500;DHT22;64076;51.466;7.260;2023-06-14T00:01:14;28.60;31.80
75500;DHT22;64076;51.466;7.260;2023-06-14T00:03:39;28.60;31.80
75500;DHT22;64076;51.466;7.260;2023-06-14T00:06:05;28.60;31.80
75500;DHT22;64076;51.466;7.260;2023-06-14T00:08:30;28.50;31.80
75500;DHT22;64076;51.466;7.260;2023-06-14T00:10:56;28.50;31.80
75500;DHT22;64076;51.466;7.260;2023-06-14T00:13:21;28.50;31.80
75500;DHT22;64076;51.466;7.260;2023-06-14T00:15:47;28.50;31.80
75500;DHT22;64076;51.466;7.260;2023-06-14T00:18:13;28.50;31.80
75500;DHT22;64076;51.466;7.260;2023-06-14T00:20:38;28.50;31.90
75500;DHT22;64076;51.466;7.260;2023-06-14T00:23:04;28.50;31.90
75500;DHT22;64076;51.466;7.260;2023-06-14T00:25:30;28.40;31.90
75500;DHT22;64076;51.466;7.260;2023-06-14T00:27:57;28.40;31.90
75500;DHT22;64076;51.466;7.260;2023-06-14T00:30:22;28.40;31.90
75500;DHT22;64076;51.466;7.260;2023-06-14T00:32:48;28.40;31.90
75500;DHT22;64076;51.466;7.260;2023-06-14T00:35:15;28.40;32.00
75500;DHT22;64076;51.466;7.260;2023-06-14T00:37:40;28.40;32.00
75500;DHT22;64076;51.466;7.260;2023-06-14T00:40:06;28.40;32.00
75500;DHT22;64076;51.466;7.260;2023-06-14T00:42:32;28.40;32.00
75500;DHT22;64076;51.466;7.260;2023-06-14T00:44:58;28.40;32.00
75500;DHT22;64076;51.466;7.260;2023-06-14T00:47:24;28.40;32.00
75500;DHT22;64076;51.466;7.260;2023-06-14T00:49:50;28.40;32.00
75500;DHT22;64076;51.466;7.260;2023-06-14T00:52:17;28.40;32.00
75500;DHT22;64076;51.466;7.260;2023-06-14T00:54:44;28.40;32.00
75500;DHT22;64076;51.466;7.260;2023-06-14T00:57:10;28.40;32.00
75500;DHT22;64076;51.466;7.260;2023-06-14T00:59:47;28.40;32.00
75500;DHT22;64076;51.466;7.260;2023-06-14T01:02:14;28.40;32.00
75500;DHT22;64076;51.466;7.260;2023-06-14T01:04:46;28.30;32.00
75500;DHT22;64076;51.466;7.260;2023-06-14T01:12:40;28.30;32.00
75500;DHT22;64076;51.466;7.260;2023-06-14T01:15:09;28.40;31.90
75500;DHT22;64076;51.466;7.260;2023-06-14T01:17:35;28.30;32.00
75500;DHT22;64076;51.466;7.260;2023-06-14T01:20:02;28.30;31.90
75500;DHT22;64076;51.466;7.260;2023-06-14T01:22:28;28.30;32.00
75500;DHT22;64076;51.466;7.260;2023-06-14T01:24:54;28.30;32.00
75500;DHT22;64076;51.466;7.260;2023-06-14T01:27:23;28.30;31.90
75500;DHT22;64076;51.466;7.260;2023-06-14T01:29:51;28.30;32.00
75500;DHT22;64076;51.466;7.260;2023-06-14T01:32:17;28.30;32.00
75500;DHT22;64076;51.466;7.260;2023-06-14T01:34:43;28.30;32.00
75500;DHT22;64076;51.466;7.260;2023-06-14T01:37:10;28.30;32.00
75500;DHT22;64076;51.466;7.260;2023-06-14T01:39:37;28.30;32.00
75500;DHT22;64076;51.466;7.260;2023-06-14T01:42:03;28.30;32.00
75500;DHT22;64076;51.466;7.260;2023-06-14T01:44:30;28.30;31.90
75500;DHT22;64076;51.466;7.260;2023-06-14T01:46:56;28.30;32.00
75500;DHT22;64076;51.466;7.260;2023-06-14T01:49:22;28.30;31.90
75500;DHT22;64076;51.466;7.260;2023-06-14T01:51:48;28.30;32.00
75500;DHT22;64076;51.466;7.260;2023-06-14T01:54:13;28.20;32.00
75500;DHT22;64076;51.466;7.260;2023-06-14T01:56:39;28.20;32.00
75500;DHT22;64076;51.466;7.260;2023-06-14T01:59:04;28.20;32.00
75500;DHT22;64076;51.466;7.260;2023-06-14T02:01:30;28.20;32.00
75500;DHT22;64076;51.466;7.260;2023-06-14T02:03:56;28.20;32.00
75500;DHT22;64076;51.466;7.260;2023-06-14T02:06:21;28.20;32.00
75500;DHT22;64076;51.466;7.260;2023-06-14T02:08:47;28.20;32.00
75500;DHT22;64076;51.466;7.260;2023-06-14T02:11:12;28.20;31.90
75500;DHT22;64076;51.466;7.260;2023-06-14T02:13:38;28.20;32.00
75500;DHT22;64076;51.466;7.260;2023-06-14T02:16:03;28.20;32.00
75500;DHT22;64076;51.466;7.260;2023-06-14T02:18:29;28.20;32.00
75500;DHT22;64076;51.466;7.260;2023-06-14T02:20:55;28.20;32.00
75500;DHT22;64076;51.466;7.260;2023-06-14T02:23:20;28.20;32.00
75500;DHT22;64076;51.466;7.260;2023-06-14T02:25:46;28.20;32.00
75500;DHT22;64076;51.466;7.260;2023-06-14T02:28:11;28.20;32.00
75500;DHT22;64076;51.466;7.260;2023-06-14T02:30:37;28.20;32.00
75500;DHT22;64076;51.466;7.260;2023-06-14T02:33:03;28.20;32.00
75500;DHT22;64076;51.466;7.260;2023-06-14T02:35:30;28.10;32.10
75500;DHT22;64076;51.466;7.260;2023-06-14T02:37:55;28.10;32.10
75500;DHT22;64076;51.466;7.260;2023-06-14T02:40:21;28.10;32.00
75500;DHT22;64076;51.466;7.260;2023-06-14T02:42:47;28.10;32.10
75500;DHT22;64076;51.466;7.260;2023-06-14T02:45:12;28.10;32.10
75500;DHT22;64076;51.466;7.260;2023-06-14T02:47:38;28.10;32.10
75500;DHT22;64076;51.466;7.260;2023-06-14T02:50:04;28.10;32.10
75500;DHT22;64076;51.466;7.260;2023-06-14T02:52:29;28.10;32.10
75500;DHT22;64076;51.466;7.260;2023-06-14T02:54:55;28.10;32.10
75500;DHT22;64076;51.466;7.260;2023-06-14T02:57:22;28.10;32.10
75500;DHT22;64076;51.466;7.260;2023-06-14T02:59:48;28.10;32.10
75500;DHT22;64076;51.466;7.260;2023-06-14T03:02:14;28.10;32.10
75500;DHT22;64076;51.466;7.260;2023-06-14T03:04:39;28.00;32.10
75500;DHT22;64076;51.466;7.260;2023-06-14T03:07:06;28.00;32.10
75500;DHT22;64076;51.466;7.260;2023-06-14T03:09:35;28.00;32.10
75500;DHT22;64076;51.466;7.260;2023-06-14T03:12:01;28.00;32.10
75500;DHT22;64076;51.466;7.260;2023-06-14T03:14:28;28.00;32.10
75500;DHT22;64076;51.466;7.260;2023-06-14T03:16:54;28.00;32.10
75500;DHT22;64076;51.466;7.260;2023-06-14T03:19:22;28.00;32.10
75500;DHT22;64076;51.466;7.260;2023-06-14T03:21:48;28.00;32.10
75500;DHT22;64076;51.466;7.260;2023-06-14T03:24:14;28.00;32.10
75500;DHT22;64076;51.466;7.260;2023-06-14T03:26:41;28.00;32.10
75500;DHT22;64076;51.466;7.260;2023-06-14T03:29:07;28.00;32.10
75500;DHT22;64076;51.466;7.260;2023-06-14T03:31:34;28.00;32.10
75500;DHT22;64076;51.466;7.260;2023-06-14T03:34:00;28.00;32.10
75500;DHT22;64076;51.466;7.260;2023-06-14T03:36:26;28.00;32.10
75500;DHT22;64076;51.466;7.260;2023-06-14T03:38:53;28.00;32.10
75500;DHT22;64076;51.466;7.260;2023-06-14T03:41:19;28.00;32.10
75500;DHT22;64076;51.466;7.260;2023-06-14T03:43:44;27.90;32.10
75500;DHT22;64076;51.466;7.260;2023-06-14T03:46:10;28.00;32.10
75500;DHT22;64076;51.466;7.260;2023-06-14T03:48:36;28.00;32.00
75500;DHT22;64076;51.466;7.260;2023-06-14T03:51:02;28.10;32.00
75500;DHT22;64076;51.466;7.260;2023-06-14T03:53:28;28.10;31.90
75500;DHT22;64076;51.466;7.260;2023-06-14T03:55:55;28.10;31.90
75500;DHT22;64076;51.466;7.260;2023-06-14T03:58:20;28.10;31.90
75500;DHT22;64076;51.466;7.260;2023-06-14T04:00:46;28.20;31.80
75500;DHT22;64076;51.466;7.260;2023-06-14T04:03:12;28.30;31.70
75500;DHT22;64076;51.466;7.260;2023-06-14T04:05:41;28.30;31.70
75500;DHT22;64076;51.466;7.260;2023-06-14T04:08:14;28.40;31.60
75500;DHT22;64076;51.466;7.260;2023-06-14T04:10:40;28.50;31.50
75500;DHT22;64076;51.466;7.260;2023-06-14T04:13:05;28.60;31.40
75500;DHT22;64076;51.466;7.260;2023-06-14T04:15:32;28.70;31.30
75500;DHT22;64076;51.466;7.260;2023-06-14T04:17:58;28.80;31.20
75500;DHT22;64076;51.466;7.260;2023-06-14T04:20:23;28.90;31.10
75500;DHT22;64076;51.466;7.260;2023-06-14T04:22:52;29.10;30.90
75500;DHT22;64076;51.466;7.260;2023-06-14T04:25:22;29.20;30.80
75500;DHT22;64076;51.466;7.260;2023-06-14T04:27:48;29.40;30.60
75500;DHT22;64076;51.466;7.260;2023-06-14T04:30:15;29.50;30.50
75500;DHT22;64076;51.466;7.260;2023-06-14T04:32:40;29.60;30.40
75500;DHT22;64076;51.466;7.260;2023-06-14T04:35:07;29.70;30.40
75500;DHT22;64076;51.466;7.260;2023-06-14T04:37:33;29.70;30.30
75500;DHT22;64076;51.466;7.260;2023-06-14T04:39:59;29.70;30.30
75500;DHT22;64076;51.466;7.260;2023-06-14T04:42:24;29.70;30.30
75500;DHT22;64076;51.466;7.260;2023-06-14T04:44:51;29.70;30.30
75500;DHT22;64076;51.466;7.260;2023-06-14T04:47:21;29.60;30.40
75500;DHT22;64076;51.466;7.260;2023-06-14T04:49:47;29.60;30.40
75500;DHT22;64076;51.466;7.260;2023-06-14T04:52:13;29.70;30.50
75500;DHT22;64076;51.466;7.260;2023-06-14T04:54:41;29.60;30.50
75500;DHT22;64076;51.466;7.260;2023-06-14T04:57:08;29.60;30.50
75500;DHT22;64076;51.466;7.260;2023-06-14T04:59:34;29.60;30.50
75500;DHT22;64076;51.466;7.260;2023-06-14T05:02:01;29.60;30.50
75500;DHT22;64076;51.466;7.260;2023-06-14T05:04:26;29.60;30.50
75500;DHT22;64076;51.466;7.260;2023-06-14T05:06:53;29.60;30.50
75500;DHT22;64076;51.466;7.260;2023-06-14T05:09:22;29.60;30.50
75500;DHT22;64076;51.466;7.260;2023-06-14T05:11:48;29.60;30.50
75500;DHT22;64076;51.466;7.260;2023-06-14T05:14:14;29.60;30.60
75500;DHT22;64076;51.466;7.260;2023-06-14T05:16:40;29.60;30.50
75500;DHT22;64076;51.466;7.260;2023-06-14T05:19:06;29.60;30.50
75500;DHT22;64076;51.466;7.260;2023-06-14T05:21:35;29.60;30.50
75500;DHT22;64076;51.466;7.260;2023-06-14T05:24:01;29.60;30.50
75500;DHT22;64076;51.466;7.260;2023-06-14T05:26:26;29.60;30.50
75500;DHT22;64076;51.466;7.260;2023-06-14T05:28:58;29.60;30.40
75500;DHT22;64076;51.466;7.260;2023-06-14T05:31:25;29.60;30.40
75500;DHT22;64076;51.466;7.260;2023-06-14T05:33:51;29.60;30.40
75500;DHT22;64076;51.466;7.260;2023-06-14T05:36:17;29.60;30.30
75500;DHT22;64076;51.466;7.260;2023-06-14T05:38:43;29.60;30.40
75500;DHT22;64076;51.466;7.260;2023-06-14T05:41:09;29.60;30.40
75500;DHT22;64076;51.466;7.260;2023-06-14T05:43:34;29.60;30.40
75500;DHT22;64076;51.466;7.260;2023-06-14T05:46:00;29.60;30.40
75500;DHT22;64076;51.466;7.260;2023-06-14T05:48:25;29.60;30.40
75500;DHT22;64076;51.466;7.260;2023-06-14T05:50:51;29.60;30.30
75500;DHT22;64076;51.466;7.260;2023-06-14T05:53:17;29.60;30.30
75500;DHT22;64076;51.466;7.260;2023-06-14T05:55:42;29.60;30.40
75500;DHT22;64076;51.466;7.260;2023-06-14T05:58:08;29.60;30.50
75500;DHT22;64076;51.466;7.260;2023-06-14T06:00:33;29.60;30.50
75500;DHT22;64076;51.466;7.260;2023-06-14T06:03:00;29.60;30.50
75500;DHT22;64076;51.466;7.260;2023-06-14T06:05:26;29.60;30.50
75500;DHT22;64076;51.466;7.260;2023-06-14T06:07:52;29.60;30.50
75500;DHT22;64076;51.466;7.260;2023-06-14T06:10:17;29.50;30.50
75500;DHT22;64076;51.466;7.260;2023-06-14T06:12:43;29.50;30.50
75500;DHT22;64076;51.466;7.260;2023-06-14T06:15:09;29.50;30.50
75500;DHT22;64076;51.466;7.260;2023-06-14T06:17:38;29.50;30.50
75500;DHT22;64076;51.466;7.260;2023-06-14T06:20:04;29.40;30.50
75500;DHT22;64076;51.466;7.260;2023-06-14T06:22:31;29.40;30.50
75500;DHT22;64076;51.466;7.260;2023-06-14T06:24:57;29.40;30.50
75500;DHT22;64076;51.466;7.260;2023-06-14T06:27:22;29.40;30.60
75500;DHT22;64076;51.466;7.260;2023-06-14T06:29:48;29.40;30.60
75500;DHT22;64076;51.466;7.260;2023-06-14T06:32:14;29.40;30.60
75500;DHT22;64076;51.466;7.260;2023-06-14T06:34:40;29.40;30.50
75500;DHT22;64076;51.466;7.260;2023-06-14T06:37:06;29.40;30.50
75500;DHT22;64076;51.466;7.260;2023-06-14T06:39:31;29.40;30.60
75500;DHT22;64076;51.466;7.260;2023-06-14T06:41:57;29.40;30.60
75500;DHT22;64076;51.466;7.260;2023-06-14T06:44:22;29.40;30.60
75500;DHT22;64076;51.466;7.260;2023-06-14T06:46:48;29.40;30.70
75500;DHT22;64076;51.466;7.260;2023-06-14T06:49:14;29.20;30.80
75500;DHT22;64076;51.466;7.260;2023-06-14T06:51:42;28.50;31.30
75500;DHT22;64076;51.466;7.260;2023-06-14T06:54:09;28.00;32.00
75500;DHT22;64076;51.466;7.260;2023-06-14T06:56:35;27.50;32.30
75500;DHT22;64076;51.466;7.260;2023-06-14T06:59:00;26.80;33.00
75500;DHT22;64076;51.466;7.260;2023-06-14T07:01:26;26.30;33.50
75500;DHT22;64076;51.466;7.260;2023-06-14T07:03:54;26.10;33.90
75500;DHT22;64076;51.466;7.260;2023-06-14T07:06:20;25.80;34.20
75500;DHT22;64076;51.466;7.260;2023-06-14T07:08:46;25.60;34.70
75500;DHT22;64076;51.466;7.260;2023-06-14T07:11:14;25.40;34.80
75500;DHT22;64076;51.466;7.260;2023-06-14T07:13:39;25.30;35.00
75500;DHT22;64076;51.466;7.260;2023-06-14T07:16:05;25.20;35.20
75500;DHT22;64076;51.466;7.260;2023-06-14T07:18:31;24.80;35.40
75500;DHT22;64076;51.466;7.260;2023-06-14T07:20:56;24.50;35.60
75500;DHT22;64076;51.466;7.260;2023-06-14T07:23:25;24.40;35.80
75500;DHT22;64076;51.466;7.260;2023-06-14T07:25:51;24.20;36.20
75500;DHT22;64076;51.466;7.260;2023-06-14T07:28:17;24.00;36.40
75500;DHT22;64076;51.466;7.260;2023-06-14T07:30:43;24.00;36.60
75500;DHT22;64076;51.466;7.260;2023-06-14T07:33:09;23.90;36.70
75500;DHT22;64076;51.466;7.260;2023-06-14T07:35:35;23.70;36.80
75500;DHT22;64076;51.466;7.260;2023-06-14T07:38:01;23.60;37.00
75500;DHT22;64076;51.466;7.260;2023-06-14T07:40:26;23.80;36.70
75500;DHT22;64076;51.466;7.260;2023-06-14T07:42:52;24.40;36.00
75500;DHT22;64076;51.466;7.260;2023-06-14T07:45:21;24.90;35.30
75500;DHT22;64076;51.466;7.260;2023-06-14T07:47:47;25.40;34.80
75500;DHT22;64076;51.466;7.260;2023-06-14T07:50:12;25.70;34.40
75500;DHT22;64076;51.466;7.260;2023-06-14T07:52:39;26.00;34.10
75500;DHT22;64076;51.466;7.260;2023-06-14T07:55:05;26.20;33.80
75500;DHT22;64076;51.466;7.260;2023-06-14T07:57:31;26.40;33.60
75500;DHT22;64076;51.466;7.260;2023-06-14T07:59:56;26.60;33.40
75500;DHT22;64076;51.466;7.260;2023-06-14T08:02:22;26.70;33.30
75500;DHT22;64076;51.466;7.260;2023-06-14T08:04:47;26.90;33.20
75500;DHT22;64076;51.466;7.260;2023-06-14T08:07:14;27.00;33.10
75500;DHT22;64076;51.466;7.260;2023-06-14T08:09:39;27.10;33.00
75500;DHT22;64076;51.466;7.260;2023-06-14T08:12:06;27.20;32.90
75500;DHT22;64076;51.466;7.260;2023-06-14T08:14:38;27.30;32.80
75500;DHT22;64076;51.466;7.260;2023-06-14T08:17:04;27.40;32.60
75500;DHT22;64076;51.466;7.260;2023-06-14T08:19:29;27.40;32.50
75500;DHT22;64076;51.466;7.260;2023-06-14T08:21:55;27.50;32.30
75500;DHT22;64076;51.466;7.260;2023-06-14T08:24:21;27.60;32.20
75500;DHT22;64076;51.466;7.260;2023-06-14T08:26:50;27.70;32.00
75500;DHT22;64076;51.466;7.260;2023-06-14T08:29:15;27.70;32.00
75500;DHT22;64076;51.466;7.260;2023-06-14T08:31:41;27.70;32.30
75500;DHT22;64076;51.466;7.260;2023-06-14T08:34:06;27.80;32.00
75500;DHT22;64076;51.466;7.260;2023-06-14T08:36:32;27.80;31.70
75500;DHT22;64076;51.466;7.260;2023-06-14T08:38:58;27.90;31.60
75500;DHT22;64076;51.466;7.260;2023-06-14T08:41:23;28.00;31.50
75500;DHT22;64076;51.466;7.260;2023-06-14T08:43:52;28.00;31.40
75500;DHT22;64076;51.466;7.260;2023-06-14T08:46:18;28.00;31.30
75500;DHT22;64076;51.466;7.260;2023-06-14T08:48:51;28.00;31.20
75500;DHT22;64076;51.466;7.260;2023-06-14T08:51:19;28.10;31.20
75500;DHT22;64076;51.466;7.260;2023-06-14T08:53:45;28.00;31.10
75500;DHT22;64076;51.466;7.260;2023-06-14T08:56:12;28.10;31.10
75500;DHT22;64076;51.466;7.260;2023-06-14T08:58:45;28.10;31.00
75500;DHT22;64076;51.466;7.260;2023-06-14T09:01:13;28.10;31.00
75500;DHT22;64076;51.466;7.260;2023-06-14T09:03:40;28.10;31.00
75500;DHT22;64076;51.466;7.260;2023-06-14T09:06:07;28.00;31.10
75500;DHT22;64076;51.466;7.260;2023-06-14T09:08:34;27.90;30.90
75500;DHT22;64076;51.466;7.260;2023-06-14T09:11:01;27.40;31.20
75500;DHT22;64076;51.466;7.260;2023-06-14T09:13:27;27.10;31.70
75500;DHT22;64076;51.466;7.260;2023-06-14T09:15:53;26.80;32.00
75500;DHT22;64076;51.466;7.260;2023-06-14T09:18:19;26.60;32.40
75500;DHT22;64076;51.466;7.260;2023-06-14T09:20:45;26.40;32.40
75500;DHT22;64076;51.466;7.260;2023-06-14T09:23:13;26.30;32.40
75500;DHT22;64076;51.466;7.260;2023-06-14T09:25:42;26.30;32.50
75500;DHT22;64076;51.466;7.260;2023-06-14T09:28:09;26.30;32.40
75500;DHT22;64076;51.466;7.260;2023-06-14T09:30:37;26.40;32.40
75500;DHT22;64076;51.466;7.260;2023-06-14T09:33:03;26.40;32.50
75500;DHT22;64076;51.466;7.260;2023-06-14T09:35:31;26.40;32.70
75500;DHT22;64076;51.466;7.260;2023-06-14T09:37:57;26.40;32.50
75500;DHT22;64076;51.466;7.260;2023-06-14T09:40:23;26.30;31.80
75500;DHT22;64076;51.466;7.260;2023-06-14T09:42:49;26.30;31.80
75500;DHT22;64076;51.466;7.260;2023-06-14T09:45:15;26.30;31.90
75500;DHT22;64076;51.466;7.260;2023-06-14T09:47:48;26.30;31.90
75500;DHT22;64076;51.466;7.260;2023-06-14T09:50:14;26.30;32.00
75500;DHT22;64076;51.466;7.260;2023-06-14T09:52:43;26.20;31.80
75500;DHT22;64076;51.466;7.260;2023-06-14T09:55:12;26.10;32.00
75500;DHT22;64076;51.466;7.260;2023-06-14T09:57:41;26.10;32.40
75500;DHT22;64076;51.466;7.260;2023-06-14T10:00:09;26.10;32.50
75500;DHT22;64076;51.466;7.260;2023-06-14T10:02:37;26.10;33.00
75500;DHT22;64076;51.466;7.260;2023-06-14T10:05:05;26.00;33.30
75500;DHT22;64076;51.466;7.260;2023-06-14T10:08:00;26.00;33.40
75500;DHT22;64076;51.466;7.260;2023-06-14T10:10:29;26.00;33.50
75500;DHT22;64076;51.466;7.260;2023-06-14T10:12:56;26.00;33.60
75500;DHT22;64076;51.466;7.260;2023-06-14T10:18:51;26.00;33.60
75500;DHT22;64076;51.466;7.260;2023-06-14T10:24:03;26.60;33.20
75500;DHT22;64076;51.466;7.260;2023-06-14T10:26:30;26.70;33.00
75500;DHT22;64076;51.466;7.260;2023-06-14T10:29:07;26.90;32.90
75500;DHT22;64076;51.466;7.260;2023-06-14T10:34:05;27.10;32.90
75500;DHT22;64076;51.466;7.260;2023-06-14T10:36:31;27.10;32.80
75500;DHT22;64076;51.466;7.260;2023-06-14T10:39:15;27.20;32.80
75500;DHT22;64076;51.466;7.260;2023-06-14T10:41:50;27.30;32.80
75500;DHT22;64076;51.466;7.260;2023-06-14T10:47:24;26.50;33.50
75500;DHT22;64076;51.466;7.260;2023-06-14T10:49:51;26.20;33.90
75500;DHT22;64076;51.466;7.260;2023-06-14T10:52:22;26.10;34.30
75500;DHT22;64076;51.466;7.260;2023-06-14T10:55:12;25.90;34.50
75500;DHT22;64076;51.466;7.260;2023-06-14T10:57:53;25.70;34.80
75500;DHT22;64076;51.466;7.260;2023-06-14T11:00:23;25.70;34.80
75500;DHT22;64076;51.466;7.260;2023-06-14T11:05:52;25.60;35.10
75500;DHT22;64076;51.466;7.260;2023-06-14T11:11:06;26.20;34.50
75500;DHT22;64076;51.466;7.260;2023-06-14T11:13:32;26.40;34.20
75500;DHT22;64076;51.466;7.260;2023-06-14T11:15:59;26.60;33.90
75500;DHT22;64076;51.466;7.260;2023-06-14T11:18:25;26.80;33.80
75500;DHT22;64076;51.466;7.260;2023-06-14T11:20:53;26.90;33.70
75500;DHT22;64076;51.466;7.260;2023-06-14T11:23:18;27.00;33.50
75500;DHT22;64076;51.466;7.260;2023-06-14T11:25:50;27.10;33.50
75500;DHT22;64076;51.466;7.260;2023-06-14T11:28:15;27.20;33.40
75500;DHT22;64076;51.466;7.260;2023-06-14T11:30:41;27.30;33.30
75500;DHT22;64076;51.466;7.260;2023-06-14T11:33:09;27.30;33.20
75500;DHT22;64076;51.466;7.260;2023-06-14T11:35:35;27.40;33.20
75500;DHT22;64076;51.466;7.260;2023-06-14T11:38:02;27.50;33.10
75500;DHT22;64076;51.466;7.260;2023-06-14T11:40:27;27.50;33.10
75500;DHT22;64076;51.466;7.260;2023-06-14T11:43:01;27.60;33.10
75500;DHT22;64076;51.466;7.260;2023-06-14T11:45:27;27.60;33.00
75500;DHT22;64076;51.466;7.260;2023-06-14T11:47:57;27.60;33.00
75500;DHT22;64076;51.466;7.260;2023-06-14T11:50:23;27.70;32.90
75500;DHT22;64076;51.466;7.260;2023-06-14T11:52:57;27.70;32.90
75500;DHT22;64076;51.466;7.260;2023-06-14T11:55:25;27.70;32.80
75500;DHT22;64076;51.466;7.260;2023-06-14T11:57:51;27.80;32.70
75500;DHT22;64076;51.466;7.260;2023-06-14T12:00:19;27.80;32.60
75500;DHT22;64076;51.466;7.260;2023-06-14T12:02:56;27.80;32.60
75500;DHT22;64076;51.466;7.260;2023-06-14T12:05:22;27.80;32.60
75500;DHT22;64076;51.466;7.260;2023-06-14T12:07:49;27.80;32.60
75500;DHT22;64076;51.466;7.260;2023-06-14T12:10:16;27.80;32.60
75500;DHT22;64076;51.466;7.260;2023-06-14T12:12:42;27.90;32.60
75500;DHT22;64076;51.466;7.260;2023-06-14T12:15:09;27.90;32.60
75500;DHT22;64076;51.466;7.260;2023-06-14T12:17:38;27.90;32.60
75500;DHT22;64076;51.466;7.260;2023-06-14T12:20:11;27.90;32.60
75500;DHT22;64076;51.466;7.260;2023-06-14T12:22:55;27.90;32.50
75500;DHT22;64076;51.466;7.260;2023-06-14T12:25:27;27.90;32.50
75500;DHT22;64076;51.466;7.260;2023-06-14T12:27:55;27.90;32.60
75500;DHT22;64076;51.466;7.260;2023-06-14T12:30:21;28.00;32.60
75500;DHT22;64076;51.466;7.260;2023-06-14T12:32:47;28.00;32.50
75500;DHT22;64076;51.466;7.260;2023-06-14T12:35:13;28.00;32.50
75500;DHT22;64076;51.466;7.260;2023-06-14T12:37:39;28.00;32.40
75500;DHT22;64076;51.466;7.260;2023-06-14T12:40:05;28.00;32.40
75500;DHT22;64076;51.466;7.260;2023-06-14T12:42:32;28.00;32.50
75500;DHT22;64076;51.466;7.260;2023-06-14T12:44:58;28.00;32.40
75500;DHT22;64076;51.466;7.260;2023-06-14T12:47:24;28.00;32.50
75500;DHT22;64076;51.466;7.260;2023-06-14T12:49:49;28.00;32.60
75500;DHT22;64076;51.466;7.260;2023-06-14T12:52:15;28.00;32.60
75500;DHT22;64076;51.466;7.260;2023-06-14T12:54:41;28.00;32.50
75500;DHT22;64076;51.466;7.260;2023-06-14T12:57:06;28.10;32.50
75500;DHT22;64076;51.466;7.260;2023-06-14T12:59:32;28.10;32.40
75500;DHT22;64076;51.466;7.260;2023-06-14T13:02:09;28.10;32.40
75500;DHT22;64076;51.466;7.260;2023-06-14T13:04:35;28.10;32.40
75500;DHT22;64076;51.466;7.260;2023-06-14T13:07:00;28.10;32.30
75500;DHT22;64076;51.466;7.260;2023-06-14T13:09:26;28.10;32.30
75500;DHT22;64076;51.466;7.260;2023-06-14T13:11:52;28.10;32.30
75500;DHT22;64076;51.466;7.260;2023-06-14T13:14:17;28.10;32.20
75500;DHT22;64076;51.466;7.260;2023-06-14T13:16:44;28.10;32.20
75500;DHT22;64076;51.466;7.260;2023-06-14T13:19:09;28.10;32.20
75500;DHT22;64076;51.466;7.260;2023-06-14T13:21:35;28.10;32.20
75500;DHT22;64076;51.466;7.260;2023-06-14T13:24:00;28.10;32.10
75500;DHT22;64076;51.466;7.260;2023-06-14T13:26:26;28.10;32.10
75500;DHT22;64076;51.466;7.260;2023-06-14T13:28:52;28.20;32.10
75500;DHT22;64076;51.466;7.260;2023-06-14T13:31:17;28.20;32.20
75500;DHT22;64076;51.466;7.260;2023-06-14T13:33:43;28.20;32.10
75500;DHT22;64076;51.466;7.260;2023-06-14T13:36:08;28.20;32.00
75500;DHT22;64076;51.466;7.260;2023-06-14T13:38:35;27.90;32.30
75500;DHT22;64076;51.466;7.260;2023-06-14T13:41:01;27.90;32.30
75500;DHT22;64076;51.466;7.260;2023-06-14T13:43:26;28.00;32.30
75500;DHT22;64076;51.466;7.260;2023-06-14T13:45:52;28.00;32.20
75500;DHT22;64076;51.466;7.260;2023-06-14T13:48:17;28.10;32.10
75500;DHT22;64076;51.466;7.260;2023-06-14T13:50:43;28.10;32.10
75500;DHT22;64076;51.466;7.260;2023-06-14T13:53:09;28.10;32.10
75500;DHT22;64076;51.466;7.260;2023-06-14T13:55:35;28.10;32.10
75500;DHT22;64076;51.466;7.260;2023-06-14T13:58:00;28.20;32.10
75500;DHT22;64076;51.466;7.260;2023-06-14T14:00:26;28.20;32.00
75500;DHT22;64076;51.466;7.260;2023-06-14T14:02:53;28.20;31.90
75500;DHT22;64076;51.466;7.260;2023-06-14T14:05:20;28.20;31.90
75500;DHT22;64076;51.466;7.260;2023-06-14T14:07:46;28.20;31.90
75500;DHT22;64076;51.466;7.260;2023-06-14T14:10:11;28.20;31.90
75500;DHT22;64076;51.466;7.260;2023-06-14T14:12:38;28.30;31.90
75500;DHT22;64076;51.466;7.260;2023-06-14T14:15:05;28.30;31.90
75500;DHT22;64076;51.466;7.260;2023-06-14T14:17:33;28.20;31.90
75500;DHT22;64076;51.466;7.260;2023-06-14T14:19:58;28.30;31.90
75500;DHT22;64076;51.466;7.260;2023-06-14T14:22:24;28.30;31.90
75500;DHT22;64076;51.466;7.260;2023-06-14T14:24:49;28.30;31.90
75500;DHT22;64076;51.466;7.260;2023-06-14T14:27:15;28.30;31.80
75500;DHT22;64076;51.466;7.260;2023-06-14T14:29:40;28.30;31.80
75500;DHT22;64076;51.466;7.260;2023-06-14T14:32:06;28.40;31.80
75500;DHT22;64076;51.466;7.260;2023-06-14T14:34:32;28.40;31.80
75500;DHT22;64076;51.466;7.260;2023-06-14T14:36:57;28.40;31.80
75500;DHT22;64076;51.466;7.260;2023-06-14T14:39:23;28.40;31.80
75500;DHT22;64076;51.466;7.260;2023-06-14T14:41:50;28.40;31.80
75500;DHT22;64076;51.466;7.260;2023-06-14T14:44:15;28.50;31.70
75500;DHT22;64076;51.466;7.260;2023-06-14T14:46:41;28.50;31.70
75500;DHT22;64076;51.466;7.260;2023-06-14T14:49:06;28.50;31.70
75500;DHT22;64076;51.466;7.260;2023-06-14T14:51:32;28.60;31.60
75500;DHT22;64076;51.466;7.260;2023-06-14T14:53:58;28.50;31.60
75500;DHT22;64076;51.466;7.260;2023-06-14T14:56:23;28.60;31.50
75500;DHT22;64076;51.466;7.260;2023-06-14T14:58:49;28.60;31.50
75500;DHT22;64076;51.466;7.260;2023-06-14T15:01:15;28.60;31.50
75500;DHT22;64076;51.466;7.260;2023-06-14T15:03:40;28.60;31.50
75500;DHT22;64076;51.466;7.260;2023-06-14T15:06:06;28.60;31.40
75500;DHT22;64076;51.466;7.260;2023-06-14T15:08:31;28.60;31.50
75500;DHT22;64076;51.466;7.260;2023-06-14T15:10:57;28.60;31.50
75500;DHT22;64076;51.466;7.260;2023-06-14T15:13:22;28.60;31.40
75500;DHT22;64076;51.466;7.260;2023-06-14T15:15:48;28.60;31.40
75500;DHT22;64076;51.466;7.260;2023-06-14T15:18:13;28.60;31.50
75500;DHT22;64076;51.466;7.260;2023-06-14T15:20:40;28.60;31.40
75500;DHT22;64076;51.466;7.260;2023-06-14T15:23:07;28.60;31.30
75500;DHT22;64076;51.466;7.260;2023-06-14T15:25:32;28.60;31.30
75500;DHT22;64076;51.466;7.260;2023-06-14T15:27:58;28.60;31.30
75500;DHT22;64076;51.466;7.260;2023-06-14T15:30:24;28.60;31.30
75500;DHT22;64076;51.466;7.260;2023-06-14T15:32:49;28.60;31.20
75500;DHT22;64076;51.466;7.260;2023-06-14T15:35:17;28.60;31.20
75500;DHT22;64076;51.466;7.260;2023-06-14T15:37:47;28.60;31.20
75500;DHT22;64076;51.466;7.260;2023-06-14T15:40:13;28.60;31.20
75500;DHT22;64076;51.466;7.260;2023-06-14T15:42:38;28.60;31.10
75500;DHT22;64076;51.466;7.260;2023-06-14T15:45:04;28.60;31.10
75500;DHT22;64076;51.466;7.260;2023-06-14T15:47:30;28.70;31.10
75500;DHT22;64076;51.466;7.260;2023-06-14T15:49:55;28.60;31.10